Time;durP1;ratioP1;P1;durP2;ratioP2;P2;SDS_P1;SDS_P2;PMS_P1;PMS_P2;Temp;Humidity;BMP_temperature;BMP_pressure;BME280_temperature;BME280_humidity;BME280_pressure;Samples;Min_cycle;Max_cycle;Signal;HPM_P1;HPM_P2
2022/05/27 00:01:13;;;;;;;1.63;1.07;;;17.00;73.50;17.30;97019.00;;;;5035241;28;20223;-84
2022/05/27 00:03:40;;;;;;;2.00;1.13;;;16.90;73.50;17.30;97026.00;;;;5036854;28;20223;-84
2022/05/27 00:06:08;;;;;;;1.10;1.10;;;16.90;73.60;17.30;97021.00;;;;5048865;28;20197;-84
2022/05/27 00:08:36;;;;;;;1.73;1.63;;;16.90;73.80;17.30;97019.00;;;;5055075;28;20270;-84
2022/05/27 00:11:04;;;;;;;1.20;1.10;;;16.90;74.00;17.30;97025.00;;;;5049494;28;20197;-85
2022/05/27 00:13:32;;;;;;;1.20;1.10;;;16.80;74.00;17.20;97016.00;;;;5035373;28;20221;-84
2022/05/27 00:15:59;;;;;;;1.07;1.07;;;16.80;73.90;17.20;97020.00;;;;5053112;28;20200;-84
2022/05/27 00:18:28;;;;;;;1.60;1.50;;;16.80;74.00;17.20;97018.00;;;;5046156;28;20205;-84
2022/05/27 00:20:56;;;;;;;1.03;1.03;;;16.90;74.10;17.20;97016.00;;;;5036915;28;20197;-84
2022/05/27 00:23:23;;;;;;;1.30;1.20;;;16.80;74.10;17.10;97018.00;;;;5034936;28;20217;-84
2022/05/27 00:25:51;;;;;;;2.70;1.40;;;16.70;74.20;17.10;97017.00;;;;5028649;28;20197;-84
2022/05/27 00:28:18;;;;;;;1.33;1.30;;;16.70;74.40;17.10;97003.00;;;;5042811;28;20193;-85
2022/05/27 00:30:45;;;;;;;3.50;1.40;;;16.70;74.50;17.10;97010.00;;;;5034574;28;20266;-84
2022/05/27 00:33:13;;;;;;;2.30;1.40;;;16.70;74.60;17.10;96993.00;;;;5035232;28;20228;-84
2022/05/27 00:35:41;;;;;;;1.37;1.37;;;16.70;74.60;17.10;97009.00;;;;5042104;28;20200;-85
2022/05/27 00:38:09;;;;;;;1.53;1.43;;;16.70;74.70;17.10;97001.00;;;;5035163;28;20197;-84
2022/05/27 00:40:40;;;;;;;1.40;1.30;;;16.60;74.70;17.10;97003.00;;;;5034732;28;20201;-85
2022/05/27 00:43:08;;;;;;;1.17;1.03;;;16.70;74.80;17.10;97000.00;;;;5034922;28;20663;-84
2022/05/27 00:45:39;;;;;;;1.27;1.17;;;16.60;74.90;17.00;97005.00;;;;5034834;28;20201;-84
2022/05/27 00:48:12;;;;;;;1.47;1.00;;;16.60;75.00;17.00;97000.00;;;;5035407;28;20268;-85
2022/05/27 00:50:47;;;;;;;1.83;1.23;;;16.60;75.00;17.00;97001.00;;;;5034279;28;20209;-84
2022/05/27 00:53:20;;;;;;;3.80;1.30;;;16.60;74.90;17.00;97000.00;;;;5021046;28;20706;-84
2022/05/27 00:55:56;;;;;;;1.67;1.10;;;16.50;74.70;17.00;96999.00;;;;5031626;28;20658;-85
2022/05/27 00:58:30;;;;;;;1.23;1.20;;;16.60;74.80;17.00;96991.00;;;;5034772;28;20205;-84
2022/05/27 01:00:57;;;;;;;1.40;1.13;;;16.60;74.80;16.90;96993.00;;;;5034580;28;20197;-84
2022/05/27 01:03:28;;;;;;;1.50;1.10;;;16.50;74.70;16.90;96990.00;;;;5034872;28;20224;-84
2022/05/27 01:05:57;;;;;;;1.50;1.10;;;16.50;74.70;16.90;96992.00;;;;5049220;28;20272;-84
2022/05/27 01:08:28;;;;;;;1.13;0.97;;;16.50;74.80;16.80;96989.00;;;;5030677;28;20693;-85
2022/05/27 01:11:11;;;;;;;1.30;1.20;;;16.50;74.80;16.80;96981.00;;;;5015120;28;20206;-84
2022/05/27 01:13:53;;;;;;;1.20;1.10;;;16.40;74.70;16.80;96979.00;;;;5027106;28;20221;-85
2022/05/27 01:16:40;;;;;;;0.90;0.90;;;16.40;74.80;16.80;96979.00;;;;5046718;28;20185;-84
2022/05/27 01:22:46;;;;;;;0.80;0.80;;;16.40;75.00;16.70;96973.00;;;;5033732;28;20322;-84
2022/05/27 01:25:57;;;;;;;1.33;1.00;;;16.40;74.90;16.70;96974.00;;;;5023720;28;20209;-84
2022/05/27 01:28:48;;;;;;;1.57;0.90;;;16.40;74.80;16.70;96976.00;;;;5034065;28;20555;-84
2022/05/27 01:31:38;;;;;;;1.00;1.00;;;16.30;75.00;16.70;96979.00;;;;5010926;28;20683;-84
2022/05/27 01:34:16;;;;;;;1.97;1.13;;;16.30;75.20;16.60;96970.00;;;;5016969;28;20260;-84
2022/05/27 01:36:58;;;;;;;1.10;1.00;;;16.30;75.40;16.60;96975.00;;;;5044603;28;20185;-84
2022/05/27 01:39:34;;;;;;;0.90;0.90;;;16.30;75.40;16.60;96974.00;;;;5039478;28;20228;-84
2022/05/27 01:42:11;;;;;;;1.90;1.17;;;16.30;75.40;16.60;96970.00;;;;5034127;28;20556;-85
2022/05/27 01:44:49;;;;;;;1.20;1.00;;;16.20;75.30;16.60;96978.00;;;;5031939;28;20198;-84
2022/05/27 01:47:27;;;;;;;1.47;1.03;;;16.20;75.40;16.60;96973.00;;;;5043265;28;20193;-84
2022/05/27 01:50:06;;;;;;;1.00;1.00;;;16.20;75.40;16.60;96969.00;;;;5042027;28;20205;-84
2022/05/27 01:52:42;;;;;;;2.57;1.03;;;16.20;75.40;16.60;96981.00;;;;5047789;28;20590;-84
2022/05/27 01:55:17;;;;;;;1.03;0.93;;;16.20;75.60;16.60;96973.00;;;;5039017;28;20200;-84
2022/05/27 01:57:51;;;;;;;1.03;1.03;;;16.20;75.60;16.60;96977.00;;;;5033927;28;20189;-85
2022/05/27 02:00:23;;;;;;;1.10;1.10;;;16.20;75.70;16.60;96973.00;;;;5037179;28;20200;-84
2022/05/27 02:02:59;;;;;;;2.07;1.47;;;16.20;75.80;16.60;96976.00;;;;5041316;28;20292;-84
2022/05/27 02:05:33;;;;;;;1.17;1.17;;;16.20;76.00;16.60;96973.00;;;;5032762;28;20192;-84
2022/05/27 02:08:06;;;;;;;1.93;1.03;;;16.10;76.10;16.60;96974.00;;;;5057463;28;20208;-84
2022/05/27 02:10:43;;;;;;;1.10;1.10;;;16.20;76.30;16.60;96967.00;;;;5053163;28;20227;-84
2022/05/27 02:13:16;;;;;;;1.33;1.20;;;16.20;76.40;16.60;96968.00;;;;5052356;28;20247;-84
2022/05/27 02:15:48;;;;;;;1.77;1.10;;;16.10;76.40;16.60;96968.00;;;;5052525;28;20220;-84
2022/05/27 02:18:26;;;;;;;1.20;1.10;;;16.20;76.50;16.60;96967.00;;;;5048940;28;20196;-84
2022/05/27 02:21:00;;;;;;;1.57;1.17;;;16.20;76.60;16.70;96971.00;;;;5023147;28;20307;-83
2022/05/27 02:23:34;;;;;;;1.20;1.13;;;16.20;76.70;16.70;96971.00;;;;5040543;28;20888;-84
2022/05/27 02:26:07;;;;;;;1.30;1.10;;;16.30;76.90;16.70;96969.00;;;;5038413;28;20185;-84
2022/05/27 02:28:41;;;;;;;2.13;1.60;;;16.30;77.00;16.80;96964.00;;;;5040775;28;20204;-84
2022/05/27 02:31:14;;;;;;;1.43;0.93;;;16.30;77.10;16.80;96963.00;;;;5040155;28;20215;-84
2022/05/27 02:36:15;;;;;;;1.07;1.00;;;16.40;77.30;16.90;96969.00;;;;5074673;28;20211;-83
2022/05/27 02:38:43;;;;;;;1.40;1.30;;;16.40;77.30;16.90;96964.00;;;;5069210;28;20219;-83
2022/05/27 02:41:23;;;;;;;1.17;1.10;;;16.40;77.30;17.00;96968.00;;;;5077725;28;20200;-83
2022/05/27 02:44:16;;;;;;;1.30;1.20;;;16.50;77.50;17.00;96965.00;;;;5070217;28;20225;-83
2022/05/27 02:46:58;;;;;;;1.30;1.20;;;16.50;77.40;17.10;96967.00;;;;5076137;28;20196;-83
2022/05/27 02:49:41;;;;;;;1.47;1.20;;;16.60;77.50;17.10;96967.00;;;;5062606;28;20311;-83
2022/05/27 02:52:24;;;;;;;1.50;1.40;;;16.60;77.40;17.20;96964.00;;;;5074739;28;20196;-83
2022/05/27 02:55:04;;;;;;;1.60;1.50;;;16.60;77.30;17.20;96962.00;;;;5072820;28;20275;-83
2022/05/27 02:57:46;;;;;;;2.50;1.67;;;16.70;77.40;17.20;96960.00;;;;5069428;28;20216;-83
2022/05/27 03:00:22;;;;;;;1.53;1.43;;;16.70;77.30;17.30;96955.00;;;;5069179;28;20230;-84
2022/05/27 03:02:54;;;;;;;5.73;1.80;;;16.80;77.30;17.30;96952.00;;;;5076588;28;20223;-84
2022/05/27 03:05:31;;;;;;;1.57;1.40;;;16.80;77.30;17.30;96959.00;;;;5067306;28;20228;-83
2022/05/27 03:08:18;;;;;;;1.60;1.50;;;16.80;77.20;17.40;96965.00;;;;5074002;28;20751;-83
2022/05/27 03:11:04;;;;;;;1.60;1.50;;;16.90;77.30;17.40;96969.00;;;;5077866;28;20262;-84
2022/05/27 03:14:03;;;;;;;1.57;1.47;;;16.90;77.30;17.40;96960.00;;;;5071599;28;20625;-84
2022/05/27 03:16:48;;;;;;;1.83;1.73;;;16.90;77.30;17.50;96968.00;;;;5071175;28;20257;-84
2022/05/27 03:19:44;;;;;;;1.50;1.17;;;17.00;77.30;17.50;96967.00;;;;5081201;28;20278;-83
2022/05/27 03:22:26;;;;;;;1.07;1.07;;;17.00;77.10;17.60;96973.00;;;;5085314;22;20220;-82
2022/05/27 03:25:20;;;;;;;1.70;1.60;;;17.10;77.30;17.60;96963.00;;;;5036970;28;20624;-82
2022/05/27 03:28:10;;;;;;;1.80;1.70;;;17.10;77.10;17.60;96964.00;;;;5032765;28;20696;-82
2022/05/27 03:30:48;;;;;;;4.13;1.53;;;17.10;77.10;17.70;96974.00;;;;5011484;28;20666;-82
2022/05/27 03:33:32;;;;;;;1.30;1.20;;;17.10;77.10;17.70;96953.00;;;;5010392;28;20204;-82
2022/05/27 03:36:16;;;;;;;1.67;1.57;;;17.20;77.00;17.70;96958.00;;;;5046443;28;20291;-82
2022/05/27 03:38:58;;;;;;;1.87;1.20;;;17.20;77.00;17.80;96959.00;;;;5014834;28;20222;-82
2022/05/27 03:41:36;;;;;;;1.23;1.13;;;17.20;77.00;17.80;96955.00;;;;5030291;28;20560;-82
2022/05/27 03:44:05;;;;;;;1.87;1.47;;;17.30;77.00;17.80;96950.00;;;;5030506;28;20518;-82
2022/05/27 03:46:37;;;;;;;1.40;1.30;;;17.30;77.00;17.90;96955.00;;;;5023617;28;20287;-81
2022/05/27 03:49:06;;;;;;;1.77;1.67;;;17.30;77.00;17.90;96954.00;;;;5019900;28;20193;-81
2022/05/27 03:51:40;;;;;;;1.73;1.17;;;17.40;77.10;17.90;96964.00;;;;5030517;28;20312;-82
2022/05/27 03:54:14;;;;;;;1.20;1.20;;;17.40;76.80;18.00;96958.00;;;;5029461;28;20209;-81
2022/05/27 03:56:44;;;;;;;1.40;1.30;;;17.40;76.80;18.00;96955.00;;;;5028545;28;20194;-82
2022/05/27 03:59:15;;;;;;;1.87;1.77;;;17.50;76.80;18.00;96963.00;;;;5049263;28;20228;-81
2022/05/27 04:01:46;;;;;;;1.33;1.23;;;17.50;76.70;18.10;96960.00;;;;5038733;28;20208;-82
2022/05/27 04:04:18;;;;;;;1.00;1.00;;;17.50;76.50;18.10;96963.00;;;;5011423;28;20388;-82
2022/05/27 04:06:46;;;;;;;1.40;1.30;;;17.60;76.60;18.10;96959.00;;;;5017832;28;20187;-82
2022/05/27 04:09:13;;;;;;;1.30;1.30;;;17.60;76.60;18.20;96964.00;;;;5029365;28;20228;-82
2022/05/27 04:11:42;;;;;;;1.43;1.30;;;17.60;77.30;18.20;96961.00;;;;5027822;28;20230;-82
2022/05/27 04:14:10;;;;;;;1.43;1.30;;;17.60;76.60;18.20;96968.00;;;;5046545;28;20197;-82
2022/05/27 04:16:37;;;;;;;1.67;1.40;;;17.60;76.70;18.30;96968.00;;;;5028336;28;20651;-82
2022/05/27 04:19:06;;;;;;;1.20;1.10;;;17.70;76.70;18.30;96969.00;;;;5018310;28;20560;-81
2022/05/27 04:21:35;;;;;;;1.23;1.10;;;17.70;76.70;18.40;96969.00;;;;5032780;28;20647;-82
2022/05/27 04:24:10;;;;;;;1.70;1.30;;;17.70;76.50;18.40;96974.00;;;;5031057;28;20194;-81
2022/05/27 04:26:38;;;;;;;1.13;1.13;;;17.80;76.40;18.40;96979.00;;;;5020689;28;20547;-78
2022/05/27 04:29:07;;;;;;;1.60;1.17;;;17.80;76.40;18.40;96976.00;;;;5035881;28;20194;-79
2022/05/27 04:31:34;;;;;;;1.10;1.10;;;17.80;76.30;18.50;96979.00;;;;5048960;28;20648;-78
2022/05/27 04:34:06;;;;;;;1.07;1.03;;;17.90;76.30;18.50;96974.00;;;;5036110;28;20209;-82
2022/05/27 04:36:33;;;;;;;1.27;1.03;;;17.90;76.40;18.60;96974.00;;;;5034988;28;20208;-85
2022/05/27 04:39:01;;;;;;;1.40;1.30;;;17.90;76.40;18.60;96978.00;;;;5030338;28;20194;-83
2022/05/27 04:41:28;;;;;;;2.60;1.50;;;18.00;76.40;18.70;96975.00;;;;5032063;28;20279;-82
2022/05/27 04:43:55;;;;;;;1.83;1.17;;;18.00;76.40;18.70;96965.00;;;;5030181;28;20227;-83
2022/05/27 04:46:24;;;;;;;1.10;1.10;;;18.10;76.40;18.70;96967.00;;;;5048703;28;20188;-84
2022/05/27 04:48:51;;;;;;;1.20;1.10;;;18.10;76.20;18.70;96960.00;;;;5041392;28;20301;-83
2022/05/27 04:51:18;;;;;;;1.50;1.10;;;18.10;76.10;18.80;96957.00;;;;5014001;28;20296;-83
2022/05/27 04:53:45;;;;;;;1.33;0.90;;;18.10;76.10;18.80;96963.00;;;;5018402;28;20210;-83
2022/05/27 04:56:12;;;;;;;2.17;1.30;;;18.20;75.90;18.80;96957.00;;;;5020432;28;20201;-84
2022/05/27 04:58:39;;;;;;;2.23;1.17;;;18.20;75.80;18.70;96953.00;;;;5042008;28;20632;-83
2022/05/27 05:01:07;;;;;;;1.00;1.00;;;18.20;75.70;18.70;96951.00;;;;5034893;28;20713;-83
2022/05/27 05:03:35;;;;;;;1.03;0.90;;;18.20;75.80;18.70;96950.00;;;;5034913;28;20197;-84
2022/05/27 05:06:02;;;;;;;1.10;1.03;;;18.20;75.80;18.70;96953.00;;;;5033717;28;20288;-84
2022/05/27 05:08:34;;;;;;;1.00;1.00;;;18.20;75.80;18.80;96952.00;;;;5034786;28;20224;-84
2022/05/27 05:11:02;;;;;;;0.90;0.90;;;18.20;75.80;18.80;96957.00;;;;5034604;28;20234;-83
2022/05/27 05:13:30;;;;;;;1.00;1.00;;;18.20;75.80;18.80;96960.00;;;;5051510;28;20230;-84
2022/05/27 05:15:59;;;;;;;1.03;1.03;;;18.20;75.70;18.80;96960.00;;;;5052332;28;20220;-85
2022/05/27 05:18:27;;;;;;;0.93;0.90;;;18.20;75.80;18.80;96966.00;;;;5035004;28;20221;-84
2022/05/27 05:20:56;;;;;;;1.10;1.10;;;18.30;75.90;18.80;96965.00;;;;5033824;28;20231;-83
2022/05/27 05:23:25;;;;;;;0.70;0.70;;;18.30;75.90;18.90;96964.00;;;;5013357;28;20213;-83
2022/05/27 05:25:55;;;;;;;1.00;1.00;;;18.30;76.00;18.90;96955.00;;;;5028149;28;20292;-84
2022/05/27 05:28:22;;;;;;;2.00;1.10;;;18.30;76.00;19.00;96951.00;;;;5034267;28;20218;-83
2022/05/27 05:30:50;;;;;;;1.10;1.00;;;18.40;76.10;19.00;96944.00;;;;5054194;28;20315;-84
2022/05/27 05:33:17;;;;;;;0.93;0.90;;;18.30;75.80;19.00;96946.00;;;;5054231;28;20204;-83
2022/05/27 05:35:46;;;;;;;0.93;0.90;;;18.40;75.70;19.10;96957.00;;;;5054487;28;20249;-84
2022/05/27 05:38:15;;;;;;;2.07;1.07;;;18.50;75.70;19.10;96948.00;;;;5054624;28;20796;-83
2022/05/27 05:40:45;;;;;;;1.03;0.90;;;18.50;75.60;19.10;96946.00;;;;5053144;28;20629;-83
2022/05/27 05:43:14;;;;;;;1.00;0.90;;;18.50;75.50;19.10;96943.00;;;;5047611;28;20204;-83
2022/05/27 05:45:41;;;;;;;1.83;1.20;;;18.60;75.50;19.10;96946.00;;;;5035672;28;20207;-84
2022/05/27 05:48:09;;;;;;;1.27;1.00;;;18.60;75.40;19.10;96942.00;;;;5053633;28;20348;-83
2022/05/27 05:50:36;;;;;;;0.80;0.80;;;18.60;75.10;19.10;96947.00;;;;5053103;28;20307;-83
2022/05/27 05:53:04;;;;;;;1.23;1.00;;;18.60;75.20;19.20;96952.00;;;;5052602;28;20205;-83
2022/05/27 05:55:35;;;;;;;1.10;1.00;;;18.70;75.10;19.20;96945.00;;;;5053435;28;20224;-82
2022/05/27 05:58:04;;;;;;;1.07;0.97;;;18.70;75.30;19.20;96938.00;;;;5052784;28;20316;-84
2022/05/27 06:00:32;;;;;;;0.80;0.80;;;18.70;75.20;19.20;96944.00;;;;5036510;28;20701;-85
2022/05/27 06:02:59;;;;;;;1.17;1.00;;;18.70;75.20;19.30;96949.00;;;;5044730;28;20637;-83
2022/05/27 06:05:26;;;;;;;0.83;0.80;;;18.80;75.20;19.30;96944.00;;;;5051508;28;20566;-83
2022/05/27 06:07:55;;;;;;;0.83;0.77;;;18.80;75.10;19.40;96944.00;;;;5043783;28;20247;-83
2022/05/27 06:10:23;;;;;;;1.07;1.00;;;18.80;75.70;19.40;96944.00;;;;5030758;28;20225;-84
2022/05/27 06:12:52;;;;;;;1.33;0.80;;;18.90;75.00;19.40;96942.00;;;;5031260;28;20569;-85
2022/05/27 06:15:19;;;;;;;0.90;0.90;;;18.90;74.80;19.50;96937.00;;;;5037396;28;20275;-84
2022/05/27 06:17:46;;;;;;;1.03;1.00;;;19.00;74.80;19.50;96935.00;;;;5051608;28;20251;-84
2022/05/27 06:20:13;;;;;;;1.17;0.60;;;19.00;74.70;19.60;96932.00;;;;5032296;28;20193;-83
2022/05/27 06:22:42;;;;;;;0.70;0.70;;;19.10;74.80;19.60;96936.00;;;;5011662;28;20260;-83
2022/05/27 06:25:11;;;;;;;0.90;0.90;;;19.10;74.80;19.70;96932.00;;;;5011308;28;20206;-83
2022/05/27 06:27:38;;;;;;;0.80;0.70;;;19.20;74.60;19.80;96939.00;;;;5022399;28;20215;-84
2022/05/27 06:35:34;;;;;;;1.03;0.70;;;19.30;74.30;20.00;96933.00;;;;5050944;28;20188;-83
2022/05/27 06:38:01;;;;;;;0.60;0.60;;;19.40;74.30;20.00;96936.00;;;;5052653;28;20225;-84
2022/05/27 06:40:28;;;;;;;1.13;0.93;;;19.50;74.30;20.10;96928.00;;;;5052945;28;20283;-83
2022/05/27 06:42:56;;;;;;;1.07;0.73;;;19.50;73.90;20.10;96934.00;;;;5052910;28;20283;-84
2022/05/27 06:45:25;;;;;;;1.47;0.70;;;19.60;74.00;20.20;96937.00;;;;5052021;28;20198;-83
2022/05/27 06:47:52;;;;;;;1.00;0.97;;;19.70;74.00;20.30;96929.00;;;;5052409;28;20221;-85
2022/05/27 06:50:20;;;;;;;0.87;0.83;;;19.70;73.20;20.40;96930.00;;;;5052137;28;20291;-83
2022/05/27 06:52:47;;;;;;;2.23;0.70;;;19.80;73.50;20.40;96932.00;;;;5051054;28;20201;-83
2022/05/27 06:55:16;;;;;;;0.63;0.63;;;19.90;73.40;20.50;96939.00;;;;5052084;28;20244;-84
2022/05/27 06:57:43;;;;;;;1.23;0.80;;;19.90;73.20;20.60;96936.00;;;;5044394;28;20223;-83
2022/05/27 07:00:13;;;;;;;1.33;0.80;;;20.00;73.30;20.70;96927.00;;;;5033118;28;20225;-84
2022/05/27 07:02:41;;;;;;;1.17;0.80;;;20.10;73.20;20.80;96934.00;;;;5032306;28;20204;-83
2022/05/27 07:05:10;;;;;;;1.57;0.80;;;20.20;73.00;21.00;96929.00;;;;5033355;28;20286;-82
2022/05/27 07:07:37;;;;;;;0.60;0.60;;;20.30;72.90;21.20;96937.00;;;;5031756;28;20217;-83
2022/05/27 07:10:06;;;;;;;1.37;0.90;;;20.50;73.00;21.40;96931.00;;;;5011539;28;20202;-83
2022/05/27 07:12:33;;;;;;;0.70;0.70;;;20.60;73.10;21.60;96921.00;;;;5047086;28;20270;-83
2022/05/27 07:15:00;;;;;;;0.50;0.50;;;20.80;73.10;21.80;96924.00;;;;5052415;28;20193;-83
2022/05/27 07:17:29;;;;;;;0.70;0.70;;;20.90;72.90;22.00;96921.00;;;;5049619;28;20209;-83
2022/05/27 07:19:57;;;;;;;0.80;0.80;;;21.10;72.40;22.20;96919.00;;;;5051895;28;20283;-83
2022/05/27 07:22:25;;;;;;;1.40;0.67;;;21.30;72.10;22.50;96922.00;;;;5051540;28;20218;-83
2022/05/27 07:24:53;;;;;;;2.07;1.10;;;21.50;72.20;22.70;96922.00;;;;5051768;28;20291;-83
2022/05/27 07:27:20;;;;;;;0.60;0.60;;;21.60;70.70;22.90;96919.00;;;;5042394;28;20323;-83
2022/05/27 07:29:47;;;;;;;0.70;0.70;;;21.80;70.50;23.10;96914.00;;;;5031391;28;20232;-83
2022/05/27 07:32:14;;;;;;;0.77;0.77;;;22.00;70.70;23.30;96910.00;;;;5023178;28;20253;-83
2022/05/27 07:34:41;;;;;;;0.83;0.73;;;22.20;70.50;23.50;96897.00;;;;5012473;28;20261;-83
2022/05/27 07:37:10;;;;;;;0.90;0.60;;;22.40;70.40;23.70;96900.00;;;;5029347;28;20223;-84
2022/05/27 07:39:37;;;;;;;1.97;0.70;;;22.60;69.40;23.90;96903.00;;;;5032127;28;20237;-83
2022/05/27 07:42:05;;;;;;;1.30;0.70;;;22.70;69.10;24.10;96892.00;;;;5031405;28;20198;-82
2022/05/27 07:44:32;;;;;;;1.70;0.70;;;22.90;68.00;24.30;96896.00;;;;5031484;28;20204;-83
2022/05/27 07:47:00;;;;;;;0.53;0.53;;;23.00;68.70;24.50;96896.00;;;;5030839;28;20227;-82
2022/05/27 07:49:27;;;;;;;1.87;0.60;;;23.20;67.60;24.70;96898.00;;;;5031950;28;20615;-82
2022/05/27 07:51:54;;;;;;;0.83;0.70;;;23.40;67.10;24.90;96889.00;;;;5031647;28;20258;-82
2022/05/27 07:54:23;;;;;;;1.00;0.50;;;23.50;66.40;25.10;96892.00;;;;5031539;28;20383;-84
2022/05/27 07:56:50;;;;;;;0.50;0.50;;;23.70;66.70;25.30;96912.00;;;;5032362;28;20209;-82
2022/05/27 07:59:17;;;;;;;1.77;0.67;;;23.90;66.20;25.60;96904.00;;;;5031342;28;20233;-82
2022/05/27 08:01:44;;;;;;;1.03;0.60;;;24.00;66.00;25.90;96915.00;;;;5032110;28;20211;-82
2022/05/27 08:04:11;;;;;;;0.60;0.60;;;24.20;65.70;26.10;96912.00;;;;5019920;28;20589;-82
2022/05/27 08:06:40;;;;;;;1.13;0.70;;;24.40;65.30;26.50;96910.00;;;;5018842;28;20212;-81
2022/05/27 08:09:07;;;;;;;0.93;0.67;;;24.60;64.80;26.80;96912.00;;;;5055472;28;20197;-84
2022/05/27 08:11:37;;;;;;;1.93;0.60;;;24.80;63.70;27.10;96921.00;;;;5037124;28;20221;-83
2022/05/27 08:14:05;;;;;;;0.93;0.50;;;25.00;63.10;27.40;96914.00;;;;5031887;28;20652;-83
2022/05/27 08:16:33;;;;;;;0.80;0.77;;;25.20;62.30;27.70;96909.00;;;;5015204;28;20199;-83
2022/05/27 08:19:00;;;;;;;1.07;0.70;;;25.50;62.40;27.90;96924.00;;;;5028362;28;20267;-85
2022/05/27 08:21:27;;;;;;;0.87;0.60;;;25.70;62.10;28.00;96913.00;;;;5017679;28;20214;-84
2022/05/27 08:23:55;;;;;;;1.77;0.77;;;25.80;61.40;28.00;96919.00;;;;5029873;28;20184;-86
2022/05/27 08:26:22;;;;;;;0.43;0.43;;;26.00;59.70;28.10;96916.00;;;;5033519;28;20658;-86
2022/05/27 08:28:52;;;;;;;0.53;0.50;;;26.10;60.00;28.10;96908.00;;;;5043230;28;20312;-86
2022/05/27 08:31:20;;;;;;;1.03;0.50;;;26.20;59.30;28.00;96912.00;;;;5033049;28;20443;-84
2022/05/27 08:39:22;;;;;;;1.60;0.70;;;26.30;58.10;27.70;96912.00;;;;5035729;28;20676;-86
2022/05/27 08:42:12;;;;;;;2.00;0.70;;;26.30;59.00;27.60;96910.00;;;;5032481;28;20225;-88
2022/05/27 08:44:55;;;;;;;0.57;0.50;;;26.40;58.40;27.80;96910.00;;;;5034691;28;20197;-84
2022/05/27 08:47:37;;;;;;;0.77;0.67;;;26.30;59.20;28.10;96912.00;;;;5025062;28;20252;-85
2022/05/27 08:50:17;;;;;;;1.07;0.60;;;26.40;59.10;28.30;96898.00;;;;5035098;28;20189;-82
2022/05/27 08:53:00;;;;;;;2.40;0.67;;;26.50;59.00;28.70;96895.00;;;;5032948;28;20213;-83
2022/05/27 09:01:40;;;;;;;0.52;0.52;;;27.00;58.60;29.30;96901.00;;;;4974457;28;20198;-82
2022/05/27 09:04:24;;;;;;;1.42;0.50;;;27.20;57.70;29.40;96895.00;;;;5049064;28;20274;-82
2022/05/27 09:07:05;;;;;;;1.15;0.50;;;27.30;57.30;29.60;96896.00;;;;5060248;28;20267;-82
2022/05/27 09:09:33;;;;;;;0.85;0.50;;;27.50;57.50;30.00;96899.00;;;;5060662;28;20269;-82
2022/05/27 09:12:27;;;;;;;0.47;0.32;;;27.70;58.00;30.00;96896.00;;;;5065803;28;20236;-81
2022/05/27 09:15:04;;;;;;;0.55;0.52;;;27.90;55.80;30.00;96895.00;;;;5063886;28;20212;-81
2022/05/27 09:17:44;;;;;;;2.10;0.73;;;28.00;55.50;29.90;96890.00;;;;5027194;28;20249;-81
2022/05/27 09:20:36;;;;;;;0.55;0.55;;;28.10;54.70;29.80;96902.00;;;;5032866;28;20208;-82
2022/05/27 09:23:20;;;;;;;0.60;0.60;;;28.20;54.40;29.70;96899.00;;;;5081724;22;20223;-84
2022/05/27 09:26:01;;;;;;;0.63;0.50;;;28.20;54.60;29.60;96885.00;;;;5072854;28;20191;-83
2022/05/27 09:28:48;;;;;;;1.00;0.63;;;28.20;54.60;29.70;96885.00;;;;5073914;28;20196;-83
2022/05/27 09:31:26;;;;;;;0.93;0.52;;;28.40;55.10;30.00;96880.00;;;;5072135;28;20279;-83
2022/05/27 09:33:57;;;;;;;0.32;0.32;;;28.60;56.40;30.30;96876.00;;;;5065887;28;20238;-83
2022/05/27 09:36:34;;;;;;;0.40;0.32;;;28.90;55.80;30.60;96882.00;;;;5073149;28;20668;-83
2022/05/27 09:39:06;;;;;;;0.40;0.25;;;29.20;55.40;30.90;96880.00;;;;5071691;28;20188;-82
2022/05/27 09:41:44;;;;;;;0.95;0.40;;;29.60;55.80;31.20;96885.00;;;;5075656;28;20203;-83
2022/05/27 09:44:42;;;;;;;1.58;0.70;;;29.90;54.80;31.30;96878.00;;;;5073750;28;20298;-83
2022/05/27 09:47:09;;;;;;;0.43;0.43;;;30.20;54.80;31.30;96882.00;;;;5073514;28;20566;-82
2022/05/27 09:49:39;;;;;;;0.45;0.40;;;30.40;53.20;31.20;96885.00;;;;5073448;28;20192;-83
2022/05/27 09:52:07;;;;;;;1.85;0.40;;;30.40;51.60;31.10;96882.00;;;;5072512;28;20212;-83
2022/05/27 09:54:47;;;;;;;0.50;0.50;;;30.40;51.60;31.10;96883.00;;;;5074042;28;20220;-83
2022/05/27 09:57:25;;;;;;;0.50;0.50;;;30.40;52.20;31.40;96885.00;;;;5078786;28;20718;-83
2022/05/27 09:59:56;;;;;;;0.50;0.43;;;30.60;52.90;31.50;96878.00;;;;5072057;28;20192;-83
2022/05/27 10:02:30;;;;;;;1.70;0.40;;;30.80;51.90;31.60;96871.00;;;;5073351;28;20691;-83
2022/05/27 10:05:02;;;;;;;0.57;0.57;;;31.00;52.00;31.70;96886.00;;;;5069647;28;20199;-82
2022/05/27 10:07:42;;;;;;;0.63;0.47;;;31.10;51.40;31.50;96883.00;;;;5070828;28;20196;-83
2022/05/27 10:10:28;;;;;;;0.82;0.40;;;31.10;49.40;31.40;96877.00;;;;5070438;28;20649;-82
2022/05/27 10:12:56;;;;;;;2.47;0.50;;;31.10;49.10;31.30;96870.00;;;;5074470;28;20227;-83
2022/05/27 10:15:34;;;;;;;0.57;0.52;;;31.00;49.00;31.00;96872.00;;;;5073190;28;20219;-83
2022/05/27 10:18:24;;;;;;;0.40;0.40;;;30.90;49.10;31.00;96868.00;;;;5071130;28;20196;-83
2022/05/27 10:21:00;;;;;;;0.43;0.38;;;30.90;49.40;31.00;96864.00;;;;5060239;28;20596;-83
2022/05/27 10:23:30;;;;;;;1.05;0.43;;;30.90;49.40;30.90;96875.00;;;;5074197;28;20223;-83
2022/05/27 10:25:58;;;;;;;1.15;0.50;;;30.80;49.80;30.80;96880.00;;;;5072884;28;20188;-83
2022/05/27 10:28:30;;;;;;;1.90;0.47;;;30.70;49.00;30.60;96872.00;;;;5076950;28;20537;-82
2022/05/27 10:31:01;;;;;;;0.47;0.47;;;30.60;48.80;30.50;96867.00;;;;5077217;28;20215;-83
2022/05/27 10:33:41;;;;;;;1.35;0.45;;;30.50;49.70;30.40;96868.00;;;;5074460;28;20228;-83
2022/05/27 10:36:50;;;;;;;0.60;0.43;;;30.50;50.00;30.40;96853.00;;;;5079448;28;20199;-80
2022/05/27 10:39:27;;;;;;;0.60;0.47;;;30.50;49.60;30.50;96848.00;;;;5075273;28;20192;-83
2022/05/27 10:42:16;;;;;;;0.68;0.50;;;30.50;50.40;30.50;96857.00;;;;5072769;28;20195;-84
2022/05/27 10:45:03;;;;;;;0.30;0.30;;;30.60;49.70;30.60;96847.00;;;;5073672;28;20216;-79
2022/05/27 10:47:59;;;;;;;0.50;0.40;;;30.70;50.60;30.60;96846.00;;;;5079219;28;20203;-82
2022/05/27 10:50:33;;;;;;;0.65;0.25;;;30.70;50.00;30.60;96844.00;;;;5061125;28;20204;-81
2022/05/27 10:53:39;;;;;;;0.57;0.38;;;30.70;49.90;30.50;96844.00;;;;5094267;28;20242;-83
2022/05/27 10:56:22;;;;;;;0.40;0.40;;;30.60;48.80;30.40;96831.00;;;;5072554;28;20554;-83
2022/05/27 11:02:19;;;;;;;0.50;0.47;;;30.30;47.10;30.00;96841.00;;;;5075621;28;20194;-85
2022/05/27 11:05:35;;;;;;;0.65;0.50;;;30.00;46.60;29.60;96840.00;;;;5075800;28;20211;-83
2022/05/27 11:08:25;;;;;;;0.77;0.70;;;29.60;47.90;29.30;96836.00;;;;5080572;28;20200;-83
2022/05/27 11:11:14;;;;;;;0.50;0.50;;;29.30;48.60;29.10;96833.00;;;;5068957;28;20216;-84
2022/05/27 11:17:00;;;;;;;0.73;0.60;;;28.80;49.60;28.70;96816.00;;;;5052803;28;20176;-85
2022/05/27 11:19:49;;;;;;;1.07;0.70;;;28.50;50.00;28.50;96826.00;;;;5071022;28;20669;-84
2022/05/27 11:22:27;;;;;;;0.70;0.70;;;28.20;50.20;28.30;96825.00;;;;5082942;28;20223;-84
2022/05/27 11:25:28;;;;;;;1.00;0.88;;;28.00;51.10;28.10;96828.00;;;;5064626;28;20646;-81
2022/05/27 11:28:36;;;;;;;0.68;0.50;;;27.80;50.90;28.00;96819.00;;;;5072807;28;20187;-81
2022/05/27 11:31:18;;;;;;;0.50;0.50;;;27.60;51.00;27.90;96811.00;;;;5052555;28;20666;-81
2022/05/27 11:33:56;;;;;;;0.53;0.53;;;27.40;52.10;27.70;96798.00;;;;5067299;28;20223;-82
2022/05/27 11:37:18;;;;;;;1.20;0.57;;;27.30;51.40;27.60;96806.00;;;;5067295;28;20215;-81
2022/05/27 11:40:13;;;;;;;1.90;0.63;;;27.10;52.00;27.50;96798.00;;;;5073274;28;20571;-81
2022/05/27 11:43:40;;;;;;;2.00;0.60;;;27.00;52.50;27.40;96798.00;;;;5072461;28;20192;-82
2022/05/27 11:46:38;;;;;;;0.80;0.50;;;26.90;53.00;27.40;96806.00;;;;5052297;28;20580;-81
2022/05/27 11:49:36;;;;;;;0.50;0.50;;;26.80;52.40;27.30;96794.00;;;;5069108;28;20191;-81
2022/05/27 11:52:36;;;;;;;1.60;0.70;;;26.80;53.10;27.20;96789.00;;;;5072339;28;20241;-82
2022/05/27 11:55:39;;;;;;;0.60;0.60;;;26.70;52.70;27.10;96792.00;;;;5070846;28;20249;-83
2022/05/27 11:58:17;;;;;;;1.23;0.60;;;26.60;52.60;27.10;96794.00;;;;5072863;28;20195;-84